TVS4ZA LIRF-LKPR
Flight info
| Callsign | TVS4ZA |
|---|---|
| Flight time | 1h 22m |
| Altitude | 18000 |
| Route | SOVAN L995 AMTEL/N0433F340 DCT GAVRA DCT EKTUK DCT LOBSI DCT CHI/N0435F350 DCT OBEDI DCT NEMAL DCT MEDEL DCT APRAQ |
| Aircraft | B38M/M-SDE3FGHIJ1J3J4J7M3P2RWXYZ/LB1D1 |
Departure
| Time | 2026-05-06 17:07 |
|---|---|
| Airport | Rome–Fiumicino Leonardo da Vinci International Airport (LIRF) |
Arrival
| Time | 2026-05-06 18:29 |
|---|---|
| Airport | Václav Havel Airport Prague (LKPR) |
| Time | Latitude | Longitude | Altitude | Speed | Heading |
|---|---|---|---|---|---|
| 2026-05-06 16:08 | 41.79858 | 12.26639 | 16 ft | 0 kts | 249° |
| 2026-05-06 16:59 | 41.79858 | 12.26638 | 18 ft | 1 kts | 249° |
| 2026-05-06 16:59 | 41.79850 | 12.26608 | 18 ft | 5 kts | 258° |
| 2026-05-06 16:59 | 41.79853 | 12.26590 | 16 ft | 1 kts | 315° |
| 2026-05-06 17:00 | 41.79884 | 12.26561 | 16 ft | 11 kts | 333° |
| 2026-05-06 17:00 | 41.79967 | 12.26517 | 16 ft | 14 kts | 340° |
| 2026-05-06 17:00 | 41.80065 | 12.26471 | 17 ft | 12 kts | 341° |
| 2026-05-06 17:00 | 41.80128 | 12.26432 | 16 ft | 8 kts | 307° |
| 2026-05-06 17:01 | 41.80127 | 12.26377 | 19 ft | 7 kts | 251° |
| 2026-05-06 17:01 | 41.80113 | 12.26300 | 19 ft | 8 kts | 277° |
| 2026-05-06 17:01 | 41.80141 | 12.26217 | 16 ft | 12 kts | 295° |
| 2026-05-06 17:01 | 41.80179 | 12.26109 | 17 ft | 14 kts | 295° |
| 2026-05-06 17:02 | 41.80215 | 12.26047 | 16 ft | 5 kts | 342° |
| 2026-05-06 17:02 | 41.80252 | 12.26056 | 16 ft | 9 kts | 22° |
| 2026-05-06 17:02 | 41.80344 | 12.26113 | 17 ft | 18 kts | 25° |
| 2026-05-06 17:02 | 41.80447 | 12.26172 | 18 ft | 15 kts | 13° |
| 2026-05-06 17:03 | 41.80518 | 12.26208 | 19 ft | 9 kts | 56° |
| 2026-05-06 17:03 | 41.80546 | 12.26300 | 18 ft | 14 kts | 69° |
| 2026-05-06 17:03 | 41.80592 | 12.26472 | 20 ft | 24 kts | 70° |
| 2026-05-06 17:03 | 41.80642 | 12.26652 | 18 ft | 20 kts | 70° |
| 2026-05-06 17:04 | 41.80690 | 12.26828 | 16 ft | 19 kts | 70° |
| 2026-05-06 17:04 | 41.80729 | 12.26972 | 16 ft | 13 kts | 70° |
| 2026-05-06 17:04 | 41.80776 | 12.27047 | 16 ft | 7 kts | 8° |
| 2026-05-06 17:04 | 41.80830 | 12.27032 | 17 ft | 9 kts | 341° |
| 2026-05-06 17:05 | 41.80900 | 12.26998 | 16 ft | 12 kts | 339° |
| 2026-05-06 17:05 | 41.80957 | 12.26945 | 15 ft | 6 kts | 286° |
| 2026-05-06 17:05 | 41.80956 | 12.26929 | 15 ft | 0 kts | 251° |
| 2026-05-06 17:07 | 41.80955 | 12.26926 | 15 ft | 6 kts | 251° |
| 2026-05-06 17:07 | 41.80831 | 12.26472 | 22 ft | 98 kts | 249° |
| 2026-05-06 17:07 | 41.80501 | 12.25266 | 30 ft | 174 kts | 246° |
| 2026-05-06 17:07 | 41.80076 | 12.23639 | 830 ft | 185 kts | 246° |
| 2026-05-06 17:08 | 41.79641 | 12.21964 | 1611 ft | 197 kts | 244° |
| 2026-05-06 17:08 | 41.79281 | 12.20172 | 1796 ft | 206 kts | 265° |
| 2026-05-06 17:08 | 41.79691 | 12.18313 | 1896 ft | 215 kts | 297° |
| 2026-05-06 17:08 | 41.80593 | 12.16705 | 2004 ft | 216 kts | 303° |
| 2026-05-06 17:09 | 41.81524 | 12.15113 | 2342 ft | 216 kts | 303° |
| 2026-05-06 17:09 | 41.82122 | 12.14094 | 3110 ft | 208 kts | 303° |
| 2026-05-06 17:09 | 41.83035 | 12.12535 | 4065 ft | 217 kts | 304° |
| 2026-05-06 17:09 | 41.84032 | 12.10967 | 4971 ft | 231 kts | 317° |
| 2026-05-06 17:10 | 41.85541 | 12.09955 | 5612 ft | 257 kts | 341° |
| 2026-05-06 17:10 | 41.87298 | 12.09291 | 6543 ft | 266 kts | 341° |
| 2026-05-06 17:10 | 41.89136 | 12.08591 | 7329 ft | 282 kts | 341° |
| 2026-05-06 17:10 | 41.91042 | 12.07873 | 8341 ft | 285 kts | 341° |
| 2026-05-06 17:11 | 41.92964 | 12.07152 | 9396 ft | 289 kts | 341° |
| 2026-05-06 17:11 | 41.94922 | 12.06420 | 10344 ft | 296 kts | 341° |
| 2026-05-06 17:11 | 41.97021 | 12.05933 | 10888 ft | 318 kts | 353° |
| 2026-05-06 17:11 | 41.99287 | 12.05745 | 11517 ft | 333 kts | 353° |
| 2026-05-06 17:12 | 42.01629 | 12.05534 | 12340 ft | 338 kts | 353° |
| 2026-05-06 17:12 | 42.03994 | 12.05310 | 13267 ft | 343 kts | 353° |
| 2026-05-06 17:12 | 42.06391 | 12.05078 | 14079 ft | 348 kts | 352° |
| 2026-05-06 17:12 | 42.08790 | 12.04845 | 14830 ft | 352 kts | 352° |
| 2026-05-06 17:13 | 42.11250 | 12.04606 | 15590 ft | 357 kts | 352° |
| 2026-05-06 17:13 | 42.13741 | 12.04363 | 16327 ft | 361 kts | 352° |
| 2026-05-06 17:13 | 42.16266 | 12.04116 | 17062 ft | 366 kts | 352° |
| 2026-05-06 17:13 | 42.18805 | 12.03773 | 17776 ft | 368 kts | 346° |
| 2026-05-06 17:14 | 42.21347 | 12.03173 | 18450 ft | 373 kts | 347° |
| 2026-05-06 17:14 | 42.23918 | 12.02587 | 19058 ft | 376 kts | 347° |
| 2026-05-06 17:14 | 42.26515 | 12.02011 | 19676 ft | 380 kts | 347° |
| 2026-05-06 17:14 | 42.29134 | 12.01437 | 20272 ft | 383 kts | 347° |
| 2026-05-06 17:15 | 42.31780 | 12.00859 | 20878 ft | 386 kts | 347° |
| 2026-05-06 17:15 | 42.34442 | 12.00279 | 21466 ft | 390 kts | 347° |
| 2026-05-06 17:15 | 42.37134 | 11.99682 | 22052 ft | 393 kts | 346° |
| 2026-05-06 17:15 | 42.39845 | 11.99069 | 22630 ft | 396 kts | 346° |
| 2026-05-06 17:16 | 42.42571 | 11.98453 | 23204 ft | 399 kts | 346° |
| 2026-05-06 17:16 | 42.45330 | 11.97830 | 23734 ft | 403 kts | 346° |
| 2026-05-06 17:16 | 42.48112 | 11.97201 | 24191 ft | 406 kts | 346° |
| 2026-05-06 17:16 | 42.50901 | 11.96571 | 24669 ft | 408 kts | 346° |
| 2026-05-06 17:17 | 42.53710 | 11.95935 | 25133 ft | 410 kts | 345° |
| 2026-05-06 17:17 | 42.56537 | 11.95295 | 25579 ft | 413 kts | 345° |
| 2026-05-06 17:17 | 42.59348 | 11.94658 | 26010 ft | 416 kts | 345° |
| 2026-05-06 17:17 | 42.62213 | 11.94008 | 26444 ft | 418 kts | 345° |
| 2026-05-06 17:18 | 42.65097 | 11.93353 | 26871 ft | 421 kts | 345° |
| 2026-05-06 17:18 | 42.67999 | 11.92693 | 27305 ft | 423 kts | 345° |
| 2026-05-06 17:18 | 42.70922 | 11.92028 | 27704 ft | 426 kts | 344° |
| 2026-05-06 17:18 | 42.73857 | 11.91360 | 28118 ft | 429 kts | 344° |
| 2026-05-06 17:19 | 42.76809 | 11.90687 | 28521 ft | 431 kts | 344° |
| 2026-05-06 17:19 | 42.79784 | 11.90008 | 28927 ft | 434 kts | 344° |
| 2026-05-06 17:19 | 42.82727 | 11.89250 | 29290 ft | 432 kts | 337° |
| 2026-05-06 17:19 | 42.85443 | 11.87635 | 29642 ft | 423 kts | 324° |
| 2026-05-06 17:20 | 42.88063 | 11.85749 | 29948 ft | 428 kts | 326° |
| 2026-05-06 17:20 | 42.90710 | 11.83857 | 30318 ft | 429 kts | 325° |
| 2026-05-06 17:20 | 42.93354 | 11.81942 | 30621 ft | 431 kts | 325° |
| 2026-05-06 17:20 | 42.96015 | 11.80000 | 30952 ft | 433 kts | 324° |
| 2026-05-06 17:21 | 42.98643 | 11.78076 | 31276 ft | 435 kts | 324° |
| 2026-05-06 17:21 | 43.01317 | 11.76115 | 31600 ft | 437 kts | 324° |
| 2026-05-06 17:21 | 43.04003 | 11.74144 | 31927 ft | 439 kts | 324° |
| 2026-05-06 17:21 | 43.06689 | 11.72170 | 32347 ft | 438 kts | 324° |
| 2026-05-06 17:22 | 43.09369 | 11.70199 | 32798 ft | 436 kts | 324° |
| 2026-05-06 17:22 | 43.12040 | 11.68232 | 33238 ft | 435 kts | 324° |
| 2026-05-06 17:22 | 43.14705 | 11.66268 | 33654 ft | 434 kts | 323° |
| 2026-05-06 17:22 | 43.17370 | 11.64302 | 33933 ft | 435 kts | 323° |
| 2026-05-06 17:23 | 43.20185 | 11.62674 | 33905 ft | 446 kts | 338° |
| 2026-05-06 17:23 | 43.23301 | 11.62106 | 33954 ft | 461 kts | 353° |
| 2026-05-06 17:23 | 43.26534 | 11.62676 | 33936 ft | 476 kts | 8° |
| 2026-05-06 17:24 | 43.32959 | 11.65101 | 33920 ft | 479 kts | 9° |
| 2026-05-06 17:24 | 43.39350 | 11.67552 | 33940 ft | 480 kts | 9° |
| 2026-05-06 17:25 | 43.45783 | 11.70047 | 33943 ft | 479 kts | 9° |
| 2026-05-06 17:25 | 43.52207 | 11.72544 | 33937 ft | 480 kts | 9° |
| 2026-05-06 17:26 | 43.58635 | 11.75048 | 33933 ft | 480 kts | 9° |
| 2026-05-06 17:26 | 43.65059 | 11.77556 | 33936 ft | 479 kts | 9° |
| 2026-05-06 17:27 | 43.71489 | 11.80072 | 33939 ft | 480 kts | 9° |
| 2026-05-06 17:27 | 43.77892 | 11.82529 | 33928 ft | 479 kts | 7° |
| 2026-05-06 17:28 | 43.84370 | 11.84754 | 33929 ft | 480 kts | 8° |
| 2026-05-06 17:28 | 43.90842 | 11.87013 | 33918 ft | 480 kts | 8° |
| 2026-05-06 17:29 | 43.97331 | 11.89286 | 33905 ft | 481 kts | 7° |
| 2026-05-06 17:29 | 44.03828 | 11.91484 | 33898 ft | 479 kts | 5° |
| 2026-05-06 17:30 | 44.10365 | 11.93364 | 33889 ft | 480 kts | 5° |
| 2026-05-06 17:30 | 44.16919 | 11.95290 | 33886 ft | 482 kts | 5° |
| 2026-05-06 17:31 | 44.23430 | 11.97211 | 33885 ft | 481 kts | 5° |
| 2026-05-06 17:31 | 44.29982 | 11.99148 | 33891 ft | 481 kts | 5° |
| 2026-05-06 17:32 | 44.36540 | 12.01091 | 33889 ft | 481 kts | 5° |
| 2026-05-06 17:32 | 44.43095 | 12.03038 | 33889 ft | 481 kts | 6° |
| 2026-05-06 17:33 | 44.49646 | 12.04988 | 33888 ft | 481 kts | 6° |
| 2026-05-06 17:33 | 44.56185 | 12.06940 | 33891 ft | 481 kts | 6° |
| 2026-05-06 17:34 | 44.62729 | 12.08897 | 33888 ft | 481 kts | 6° |
| 2026-05-06 17:34 | 44.69231 | 12.10846 | 33887 ft | 481 kts | 6° |
| 2026-05-06 17:35 | 44.75781 | 12.12814 | 33883 ft | 481 kts | 6° |
| 2026-05-06 17:35 | 44.82334 | 12.14787 | 33886 ft | 482 kts | 6° |
| 2026-05-06 17:36 | 44.92089 | 12.18287 | 33869 ft | 489 kts | 21° |
| 2026-05-06 17:36 | 44.98275 | 12.22354 | 33878 ft | 490 kts | 21° |
| 2026-05-06 17:37 | 45.04430 | 12.26384 | 33873 ft | 490 kts | 21° |
| 2026-05-06 17:37 | 45.10762 | 12.29756 | 33875 ft | 485 kts | 13° |
| 2026-05-06 17:38 | 45.17212 | 12.32648 | 33877 ft | 486 kts | 13° |
| 2026-05-06 17:38 | 45.23667 | 12.35535 | 33888 ft | 487 kts | 13° |
| 2026-05-06 17:39 | 45.26900 | 12.36984 | 34117 ft | 487 kts | 13° |
| 2026-05-06 17:39 | 45.30142 | 12.38438 | 34430 ft | 488 kts | 13° |
| 2026-05-06 17:39 | 45.33381 | 12.39892 | 34710 ft | 489 kts | 13° |
| 2026-05-06 17:39 | 45.36626 | 12.41351 | 34891 ft | 490 kts | 13° |
| 2026-05-06 17:40 | 45.43126 | 12.44279 | 34884 ft | 488 kts | 13° |
| 2026-05-06 17:40 | 45.49568 | 12.47188 | 34888 ft | 489 kts | 14° |
| 2026-05-06 17:41 | 45.56071 | 12.50131 | 34887 ft | 489 kts | 14° |
| 2026-05-06 17:41 | 45.62559 | 12.53075 | 34884 ft | 489 kts | 14° |
| 2026-05-06 17:42 | 45.69005 | 12.56006 | 34882 ft | 489 kts | 14° |
| 2026-05-06 17:42 | 45.75488 | 12.58962 | 34899 ft | 489 kts | 14° |
| 2026-05-06 17:43 | 45.81974 | 12.61926 | 34909 ft | 489 kts | 14° |
| 2026-05-06 17:43 | 45.88465 | 12.64899 | 34916 ft | 489 kts | 14° |
| 2026-05-06 17:44 | 45.94944 | 12.67875 | 34919 ft | 489 kts | 14° |
| 2026-05-06 17:44 | 46.01396 | 12.70845 | 34917 ft | 489 kts | 14° |
| 2026-05-06 17:45 | 46.07890 | 12.73842 | 34920 ft | 489 kts | 14° |
| 2026-05-06 17:45 | 46.14330 | 12.76822 | 34911 ft | 489 kts | 14° |
| 2026-05-06 17:46 | 46.20814 | 12.79829 | 34912 ft | 489 kts | 14° |
| 2026-05-06 17:46 | 46.27297 | 12.82844 | 34911 ft | 491 kts | 14° |
| 2026-05-06 17:47 | 46.33848 | 12.85897 | 34889 ft | 495 kts | 14° |
| 2026-05-06 17:47 | 46.40403 | 12.88962 | 34869 ft | 495 kts | 14° |
| 2026-05-06 17:48 | 46.46958 | 12.92031 | 34881 ft | 495 kts | 14° |
| 2026-05-06 17:48 | 46.53472 | 12.95091 | 34882 ft | 495 kts | 14° |
| 2026-05-06 17:49 | 46.60023 | 12.98175 | 34888 ft | 495 kts | 14° |
| 2026-05-06 17:49 | 46.66582 | 13.01271 | 34878 ft | 494 kts | 14° |
| 2026-05-06 17:50 | 46.73117 | 13.04364 | 35197 ft | 492 kts | 14° |
| 2026-05-06 17:50 | 46.76391 | 13.05916 | 35058 ft | 494 kts | 14° |
| 2026-05-06 17:50 | 46.79650 | 13.07464 | 34847 ft | 493 kts | 14° |
| 2026-05-06 17:51 | 46.86192 | 13.10576 | 34879 ft | 495 kts | 14° |
| 2026-05-06 17:51 | 46.92726 | 13.13693 | 34855 ft | 493 kts | 15° |
| 2026-05-06 17:52 | 46.99255 | 13.16814 | 34810 ft | 494 kts | 15° |
| 2026-05-06 17:52 | 47.05751 | 13.19927 | 34815 ft | 495 kts | 15° |
| 2026-05-06 17:53 | 47.12275 | 13.23062 | 34832 ft | 494 kts | 15° |
| 2026-05-06 17:53 | 47.18827 | 13.26217 | 34824 ft | 495 kts | 15° |
| 2026-05-06 17:54 | 47.25388 | 13.29386 | 34804 ft | 496 kts | 15° |
| 2026-05-06 17:54 | 47.31963 | 13.32558 | 34810 ft | 497 kts | 13° |
| 2026-05-06 17:55 | 47.38647 | 13.34621 | 34795 ft | 494 kts | 7° |
| 2026-05-06 17:55 | 47.45397 | 13.36543 | 34767 ft | 494 kts | 7° |
| 2026-05-06 17:56 | 47.52137 | 13.38459 | 34579 ft | 487 kts | 7° |
| 2026-05-06 17:56 | 47.55476 | 13.39409 | 33789 ft | 491 kts | 7° |
| 2026-05-06 17:56 | 47.58844 | 13.40369 | 32912 ft | 495 kts | 7° |
| 2026-05-06 17:57 | 47.62230 | 13.41335 | 32124 ft | 497 kts | 7° |
| 2026-05-06 17:57 | 47.64472 | 13.41976 | 31883 ft | 494 kts | 7° |
| 2026-05-06 17:57 | 47.67863 | 13.42947 | 31740 ft | 498 kts | 7° |
| 2026-05-06 17:57 | 47.71244 | 13.43917 | 31772 ft | 490 kts | 7° |
| 2026-05-06 17:58 | 47.77879 | 13.45820 | 31736 ft | 482 kts | 6° |
| 2026-05-06 17:58 | 47.84458 | 13.47713 | 31734 ft | 482 kts | 6° |
| 2026-05-06 17:59 | 47.91046 | 13.49632 | 31718 ft | 483 kts | 9° |
| 2026-05-06 17:59 | 47.97356 | 13.53134 | 31695 ft | 488 kts | 18° |
| 2026-05-06 18:00 | 48.03667 | 13.56862 | 31707 ft | 488 kts | 18° |
| 2026-05-06 18:00 | 48.09991 | 13.60623 | 31691 ft | 488 kts | 18° |
| 2026-05-06 18:01 | 48.16322 | 13.64398 | 31695 ft | 489 kts | 18° |
| 2026-05-06 18:01 | 48.19464 | 13.66272 | 31351 ft | 483 kts | 17° |
| 2026-05-06 18:01 | 48.22634 | 13.67631 | 30602 ft | 479 kts | 5° |
| 2026-05-06 18:02 | 48.25911 | 13.68595 | 29932 ft | 481 kts | 7° |
| 2026-05-06 18:02 | 48.29193 | 13.69610 | 29168 ft | 482 kts | 7° |
| 2026-05-06 18:02 | 48.32483 | 13.70620 | 28401 ft | 482 kts | 7° |
| 2026-05-06 18:02 | 48.35774 | 13.71630 | 27643 ft | 482 kts | 7° |
| 2026-05-06 18:03 | 48.39073 | 13.72641 | 26886 ft | 483 kts | 7° |
| 2026-05-06 18:03 | 48.42365 | 13.73653 | 26113 ft | 483 kts | 8° |
| 2026-05-06 18:03 | 48.45630 | 13.74657 | 25330 ft | 484 kts | 8° |
| 2026-05-06 18:03 | 48.48916 | 13.75670 | 24883 ft | 480 kts | 8° |
| 2026-05-06 18:04 | 48.52205 | 13.76682 | 24707 ft | 483 kts | 8° |
| 2026-05-06 18:04 | 48.55503 | 13.77701 | 24684 ft | 484 kts | 8° |
| 2026-05-06 18:04 | 48.58799 | 13.78720 | 24700 ft | 484 kts | 8° |
| 2026-05-06 18:04 | 48.62099 | 13.79741 | 24690 ft | 480 kts | 8° |
| 2026-05-06 18:05 | 48.65338 | 13.80746 | 24700 ft | 475 kts | 8° |
| 2026-05-06 18:05 | 48.68580 | 13.81752 | 24703 ft | 475 kts | 8° |
| 2026-05-06 18:05 | 48.71824 | 13.82760 | 24701 ft | 475 kts | 8° |
| 2026-05-06 18:05 | 48.75062 | 13.83768 | 24708 ft | 476 kts | 8° |
| 2026-05-06 18:06 | 48.78307 | 13.84780 | 24701 ft | 475 kts | 8° |
| 2026-05-06 18:06 | 48.81545 | 13.85791 | 24697 ft | 473 kts | 8° |
| 2026-05-06 18:06 | 48.84735 | 13.86788 | 24142 ft | 469 kts | 8° |
| 2026-05-06 18:06 | 48.87930 | 13.87787 | 23508 ft | 468 kts | 9° |
| 2026-05-06 18:07 | 48.91102 | 13.88780 | 22981 ft | 463 kts | 9° |
| 2026-05-06 18:07 | 48.94206 | 13.89754 | 22398 ft | 459 kts | 9° |
| 2026-05-06 18:07 | 48.97329 | 13.90735 | 21830 ft | 454 kts | 9° |
| 2026-05-06 18:07 | 49.00422 | 13.91708 | 21245 ft | 451 kts | 9° |
| 2026-05-06 18:08 | 49.03477 | 13.92670 | 20749 ft | 446 kts | 9° |
| 2026-05-06 18:08 | 49.06511 | 13.93627 | 20213 ft | 442 kts | 9° |
| 2026-05-06 18:08 | 49.09501 | 13.94570 | 19703 ft | 438 kts | 9° |
| 2026-05-06 18:08 | 49.12477 | 13.95511 | 19227 ft | 434 kts | 9° |
| 2026-05-06 18:09 | 49.15423 | 13.96443 | 18731 ft | 430 kts | 9° |
| 2026-05-06 18:09 | 49.18305 | 13.97356 | 18284 ft | 427 kts | 9° |
| 2026-05-06 18:09 | 49.21201 | 13.98275 | 17814 ft | 423 kts | 9° |
| 2026-05-06 18:09 | 49.24069 | 13.99186 | 17306 ft | 419 kts | 9° |
| 2026-05-06 18:10 | 49.26912 | 14.00090 | 16871 ft | 414 kts | 9° |
| 2026-05-06 18:10 | 49.29719 | 14.00983 | 16738 ft | 413 kts | 9° |
| 2026-05-06 18:10 | 49.32511 | 14.01873 | 16407 ft | 409 kts | 9° |
| 2026-05-06 18:10 | 49.35302 | 14.02764 | 15854 ft | 408 kts | 9° |
| 2026-05-06 18:11 | 49.38066 | 14.03647 | 15422 ft | 403 kts | 9° |
| 2026-05-06 18:11 | 49.40801 | 14.04522 | 14964 ft | 400 kts | 9° |
| 2026-05-06 18:11 | 49.43512 | 14.05390 | 14525 ft | 396 kts | 9° |
| 2026-05-06 18:11 | 49.46201 | 14.06252 | 14089 ft | 393 kts | 9° |
| 2026-05-06 18:12 | 49.48838 | 14.07098 | 13657 ft | 389 kts | 9° |
| 2026-05-06 18:12 | 49.51474 | 14.07945 | 13199 ft | 386 kts | 9° |
| 2026-05-06 18:12 | 49.54090 | 14.08785 | 12817 ft | 381 kts | 9° |
| 2026-05-06 18:12 | 49.56694 | 14.09623 | 12728 ft | 383 kts | 9° |
| 2026-05-06 18:13 | 49.59300 | 14.10462 | 12729 ft | 384 kts | 9° |
| 2026-05-06 18:13 | 49.61913 | 14.11305 | 12732 ft | 384 kts | 9° |
| 2026-05-06 18:13 | 49.64526 | 14.12158 | 12737 ft | 384 kts | 12° |
| 2026-05-06 18:13 | 49.67065 | 14.13461 | 12736 ft | 385 kts | 18° |
| 2026-05-06 18:14 | 49.69590 | 14.14832 | 12734 ft | 384 kts | 17° |
| 2026-05-06 18:14 | 49.72122 | 14.16177 | 12733 ft | 384 kts | 17° |
| 2026-05-06 18:14 | 49.74622 | 14.17488 | 12735 ft | 384 kts | 17° |
| 2026-05-06 18:14 | 49.77154 | 14.18808 | 12741 ft | 384 kts | 17° |
| 2026-05-06 18:15 | 49.79695 | 14.20130 | 12746 ft | 384 kts | 17° |
| 2026-05-06 18:15 | 49.82223 | 14.21445 | 12739 ft | 384 kts | 17° |
| 2026-05-06 18:15 | 49.84756 | 14.22764 | 12749 ft | 384 kts | 17° |
| 2026-05-06 18:15 | 49.87288 | 14.24083 | 12741 ft | 382 kts | 17° |
| 2026-05-06 18:16 | 49.89728 | 14.25357 | 12743 ft | 356 kts | 17° |
| 2026-05-06 18:16 | 49.91992 | 14.26491 | 12761 ft | 329 kts | 11° |
| 2026-05-06 18:16 | 49.94168 | 14.27087 | 12762 ft | 311 kts | 5° |
| 2026-05-06 18:16 | 49.96301 | 14.27539 | 12764 ft | 309 kts | 5° |
| 2026-05-06 18:17 | 49.98405 | 14.27980 | 12762 ft | 308 kts | 5° |
| 2026-05-06 18:17 | 50.00535 | 14.28429 | 12754 ft | 308 kts | 5° |
| 2026-05-06 18:17 | 50.02662 | 14.28875 | 12746 ft | 308 kts | 5° |
| 2026-05-06 18:17 | 50.04787 | 14.29324 | 12752 ft | 308 kts | 5° |
| 2026-05-06 18:18 | 50.06915 | 14.29775 | 12746 ft | 308 kts | 5° |
| 2026-05-06 18:18 | 50.09040 | 14.30228 | 12748 ft | 308 kts | 5° |
| 2026-05-06 18:18 | 50.11168 | 14.30680 | 12745 ft | 308 kts | 5° |
| 2026-05-06 18:18 | 50.13295 | 14.31135 | 12748 ft | 309 kts | 5° |
| 2026-05-06 18:19 | 50.15421 | 14.31570 | 12672 ft | 305 kts | 1° |
| 2026-05-06 18:19 | 50.17493 | 14.31184 | 12278 ft | 296 kts | 335° |
| 2026-05-06 18:19 | 50.19176 | 14.29630 | 12170 ft | 276 kts | 316° |
| 2026-05-06 18:19 | 50.20622 | 14.27768 | 11887 ft | 265 kts | 315° |
| 2026-05-06 18:20 | 50.22022 | 14.25927 | 11433 ft | 262 kts | 315° |
| 2026-05-06 18:20 | 50.23411 | 14.24095 | 10947 ft | 261 kts | 315° |
| 2026-05-06 18:20 | 50.24794 | 14.22266 | 10491 ft | 259 kts | 315° |
| 2026-05-06 18:20 | 50.26165 | 14.20444 | 10071 ft | 258 kts | 315° |
| 2026-05-06 18:21 | 50.27530 | 14.18627 | 9655 ft | 257 kts | 315° |
| 2026-05-06 18:21 | 50.28881 | 14.16822 | 9165 ft | 256 kts | 315° |
| 2026-05-06 18:21 | 50.30224 | 14.15009 | 8689 ft | 254 kts | 315° |
| 2026-05-06 18:21 | 50.31548 | 14.13197 | 8229 ft | 252 kts | 315° |
| 2026-05-06 18:22 | 50.32847 | 14.11356 | 7757 ft | 249 kts | 309° |
| 2026-05-06 18:22 | 50.33656 | 14.09060 | 7316 ft | 238 kts | 279° |
| 2026-05-06 18:22 | 50.33606 | 14.06538 | 6923 ft | 231 kts | 251° |
| 2026-05-06 18:22 | 50.33024 | 14.04217 | 6694 ft | 230 kts | 245° |
| 2026-05-06 18:23 | 50.32387 | 14.01931 | 6345 ft | 233 kts | 245° |
| 2026-05-06 18:23 | 50.31727 | 13.99620 | 6073 ft | 231 kts | 240° |
| 2026-05-06 18:23 | 50.30685 | 13.97844 | 5974 ft | 217 kts | 209° |
| 2026-05-06 18:23 | 50.29284 | 13.97315 | 5935 ft | 205 kts | 176° |
| 2026-05-06 18:24 | 50.27967 | 13.97980 | 5841 ft | 197 kts | 156° |
| 2026-05-06 18:24 | 50.26739 | 13.98963 | 5534 ft | 199 kts | 155° |
| 2026-05-06 18:24 | 50.25513 | 13.99959 | 5274 ft | 198 kts | 155° |
| 2026-05-06 18:24 | 50.24284 | 14.00938 | 5042 ft | 194 kts | 155° |
| 2026-05-06 18:25 | 50.23098 | 14.01880 | 4776 ft | 191 kts | 155° |
| 2026-05-06 18:25 | 50.21908 | 14.02817 | 4447 ft | 191 kts | 155° |
| 2026-05-06 18:25 | 50.20797 | 14.03940 | 4131 ft | 191 kts | 139° |
| 2026-05-06 18:25 | 50.19936 | 14.05484 | 3983 ft | 185 kts | 128° |
| 2026-05-06 18:26 | 50.19189 | 14.07087 | 3852 ft | 181 kts | 127° |
| 2026-05-06 18:26 | 50.18443 | 14.08661 | 3639 ft | 180 kts | 128° |
| 2026-05-06 18:26 | 50.17696 | 14.10220 | 3426 ft | 177 kts | 127° |
| 2026-05-06 18:26 | 50.16987 | 14.11698 | 3223 ft | 170 kts | 127° |
| 2026-05-06 18:27 | 50.16289 | 14.13150 | 2996 ft | 165 kts | 127° |
| 2026-05-06 18:27 | 50.15600 | 14.14581 | 2787 ft | 164 kts | 126° |
| 2026-05-06 18:27 | 50.14931 | 14.15970 | 2584 ft | 157 kts | 126° |
| 2026-05-06 18:27 | 50.14286 | 14.17309 | 2362 ft | 153 kts | 126° |
| 2026-05-06 18:28 | 50.13650 | 14.18630 | 2154 ft | 152 kts | 125° |
| 2026-05-06 18:28 | 50.13017 | 14.19943 | 1957 ft | 151 kts | 125° |
| 2026-05-06 18:28 | 50.12390 | 14.21255 | 1733 ft | 150 kts | 124° |
| 2026-05-06 18:28 | 50.11766 | 14.22546 | 1555 ft | 148 kts | 126° |
| 2026-05-06 18:29 | 50.11149 | 14.23800 | 1328 ft | 144 kts | 124° |
| 2026-05-06 18:29 | 50.10553 | 14.25044 | 1169 ft | 136 kts | 125° |
| 2026-05-06 18:29 | 50.10123 | 14.25946 | 1193 ft | 82 kts | 127° |
| 2026-05-06 18:29 | 50.09906 | 14.26390 | 1202 ft | 29 kts | 127° |
| 2026-05-06 18:30 | 50.09872 | 14.26575 | 1209 ft | 15 kts | 86° |
| 2026-05-06 18:30 | 50.09885 | 14.26743 | 1209 ft | 17 kts | 82° |
| 2026-05-06 18:30 | 50.09901 | 14.26916 | 1208 ft | 16 kts | 81° |
| 2026-05-06 18:30 | 50.09909 | 14.27008 | 1207 ft | 0 kts | 82° |
| 2026-05-06 18:32 | 50.09914 | 14.27065 | 1206 ft | 11 kts | 83° |
| 2026-05-06 18:32 | 50.09933 | 14.27134 | 1203 ft | 3 kts | 12° |
| 2026-05-06 18:33 | 50.09958 | 14.27102 | 1201 ft | 9 kts | 300° |
| 2026-05-06 18:33 | 50.10022 | 14.26959 | 1197 ft | 22 kts | 307° |
| 2026-05-06 18:33 | 50.10116 | 14.26769 | 1185 ft | 23 kts | 307° |
| 2026-05-06 18:33 | 50.10201 | 14.26594 | 1180 ft | 16 kts | 307° |
| 2026-05-06 18:34 | 50.10246 | 14.26527 | 1179 ft | 6 kts | 345° |
| 2026-05-06 18:34 | 50.10277 | 14.26545 | 1178 ft | 9 kts | 34° |
| 2026-05-06 18:34 | 50.10342 | 14.26613 | 1175 ft | 8 kts | 26° |
| 2026-05-06 18:34 | 50.10376 | 14.26600 | 1173 ft | 5 kts | 317° |
| 2026-05-06 18:35 | 50.10399 | 14.26557 | 1176 ft | 1 kts | 335° |
| 2026-05-06 18:35 | 50.10411 | 14.26560 | 1175 ft | 5 kts | 15° |
| 2026-05-06 18:35 | 50.10426 | 14.26573 | 1176 ft | 0 kts | 33° |
| 2026-05-06 18:35 | 50.10433 | 14.26581 | 1173 ft | 1 kts | 33° |
| 2026-05-06 18:36 | 50.10434 | 14.26582 | 1173 ft | 0 kts | 33° |